createdAt,value
2023-03-05T00:02:14.254Z,15.55
2023-03-05T00:04:46.408Z,9.38
2023-03-05T00:07:17.519Z,10.10
2023-03-05T00:09:48.335Z,10.48
2023-03-05T00:12:19.376Z,10.50
2023-03-05T00:14:50.156Z,8.75
2023-03-05T00:17:21.429Z,12.60
2023-03-05T00:19:53.764Z,15.75
2023-03-05T00:22:24.759Z,15.20
2023-03-05T00:24:55.470Z,18.80
2023-03-05T00:27:26.562Z,18.38
2023-03-05T00:29:57.438Z,19.58
2023-03-05T00:32:28.794Z,21.35
2023-03-05T00:35:01.059Z,19.10
2023-03-05T00:37:32.311Z,16.43
2023-03-05T00:40:03.097Z,14.98
2023-03-05T00:42:38.705Z,13.65
2023-03-05T00:45:12.075Z,13.45
2023-03-05T00:47:43.378Z,13.70
2023-03-05T00:50:15.680Z,14.48
2023-03-05T00:52:46.906Z,11.77
2023-03-05T00:55:17.914Z,7.32
2023-03-05T00:57:49.207Z,8.60
2023-03-05T01:00:20.483Z,14.02
2023-03-05T01:02:51.491Z,13.20
2023-03-05T01:05:23.896Z,12.30
2023-03-05T01:07:56.180Z,9.75
2023-03-05T01:10:28.146Z,13.20
2023-03-05T01:12:59.761Z,10.57
2023-03-05T01:15:30.864Z,12.73
2023-03-05T01:18:01.749Z,9.43
2023-03-05T01:20:36.066Z,8.70
2023-03-05T01:23:07.121Z,10.82
2023-03-05T01:25:38.289Z,9.88
2023-03-05T01:28:10.046Z,14.43
2023-03-05T01:30:40.933Z,17.08
2023-03-05T01:33:11.867Z,15.52
2023-03-05T01:35:44.377Z,16.85
2023-03-05T01:38:15.736Z,19.33
2023-03-05T01:40:47.333Z,16.60
2023-03-05T01:43:27.736Z,14.88
2023-03-05T01:46:34.948Z,11.88
2023-03-05T01:49:20.920Z,19.50
2023-03-05T01:52:06.502Z,16.83
2023-03-05T01:54:41.926Z,12.02
2023-03-05T01:57:18.293Z,13.73
2023-03-05T01:59:54.373Z,13.57
2023-03-05T02:02:26.445Z,12.02
2023-03-05T02:05:02.273Z,11.03
2023-03-05T02:07:38.100Z,9.82
2023-03-05T02:10:19.579Z,12.60
2023-03-05T02:12:51.980Z,10.63
2023-03-05T02:15:23.504Z,6.60
2023-03-05T02:17:54.186Z,13.65
2023-03-05T02:20:27.892Z,9.07
2023-03-05T02:25:33.571Z,10.77
2023-03-05T02:30:40.628Z,7.57
2023-03-05T02:33:11.593Z,12.35
2023-03-05T02:35:43.880Z,13.85
2023-03-05T02:38:17.971Z,5.55
2023-03-05T02:40:49.196Z,5.03
2023-03-05T02:43:21.488Z,5.30
2023-03-05T02:45:53.024Z,6.93
2023-03-05T02:48:24.846Z,5.60
2023-03-05T02:50:56.610Z,7.15
2023-03-05T02:53:29.331Z,7.47
2023-03-05T02:56:00.973Z,6.72
2023-03-05T02:58:31.769Z,5.80
2023-03-05T03:01:03.045Z,3.35
2023-03-05T03:03:33.931Z,4.18
2023-03-05T03:06:05.508Z,8.48
2023-03-05T03:08:37.892Z,6.70
2023-03-05T03:11:11.227Z,6.45
2023-03-05T03:13:42.130Z,8.80
2023-03-05T03:16:16.138Z,6.82
2023-03-05T03:18:49.085Z,7.35
2023-03-05T03:21:23.207Z,6.47
2023-03-05T03:23:55.651Z,9.07
2023-03-05T03:26:27.098Z,6.05
2023-03-05T03:28:58.054Z,7.30
2023-03-05T03:31:29.118Z,6.78
2023-03-05T03:33:59.734Z,5.30
2023-03-05T03:36:30.773Z,7.90
2023-03-05T03:39:03.815Z,3.20
2023-03-05T03:41:35.491Z,7.72
2023-03-05T03:44:08.896Z,6.63
2023-03-05T03:46:41.023Z,5.68
2023-03-05T03:49:18.309Z,5.50
2023-03-05T03:51:50.882Z,5.20
2023-03-05T03:54:24.167Z,6.57
2023-03-05T03:56:55.236Z,5.10
2023-03-05T03:59:26.292Z,5.28
2023-03-05T04:01:57.503Z,5.18
2023-03-05T04:04:29.420Z,6.95
2023-03-05T04:07:00.642Z,7.68
2023-03-05T04:09:32.896Z,4.63
2023-03-05T04:12:04.143Z,7.00
2023-03-05T04:14:35.016Z,4.20
2023-03-05T04:17:06.680Z,6.13
2023-03-05T04:19:37.650Z,7.65
2023-03-05T04:22:09.387Z,8.32
2023-03-05T04:24:41.660Z,6.78
2023-03-05T04:27:13.216Z,7.75
2023-03-05T04:29:44.538Z,6.70
2023-03-05T04:32:15.556Z,8.82
2023-03-05T04:34:46.462Z,9.25
2023-03-05T04:37:17.599Z,4.40
2023-03-05T04:39:49.649Z,6.57
2023-03-05T04:42:21.419Z,6.18
2023-03-05T04:44:53.048Z,9.32
2023-03-05T04:47:24.022Z,6.88
2023-03-05T04:49:55.414Z,7.68
2023-03-05T04:52:26.619Z,7.95
2023-03-05T04:54:59.081Z,9.57
2023-03-05T04:57:30.302Z,9.30
2023-03-05T05:00:00.944Z,9.63
2023-03-05T05:02:32.152Z,9.40
2023-03-05T05:05:03.122Z,5.20
2023-03-05T05:07:34.200Z,8.18
2023-03-05T05:10:07.929Z,8.68
2023-03-05T05:12:39.894Z,9.05
2023-03-05T05:15:12.858Z,7.60
2023-03-05T05:17:44.805Z,10.13
2023-03-05T05:20:18.353Z,9.85
2023-03-05T05:22:49.424Z,9.48
2023-03-05T05:25:21.734Z,9.32
2023-03-05T05:27:53.493Z,9.00
2023-03-05T05:30:24.564Z,9.55
2023-03-05T05:32:55.656Z,8.82
2023-03-05T05:35:26.646Z,11.38
2023-03-05T05:37:58.053Z,8.80
2023-03-05T05:40:30.234Z,12.52
2023-03-05T05:43:01.528Z,12.83
2023-03-05T05:45:32.331Z,8.98
2023-03-05T05:48:05.739Z,8.73
2023-03-05T05:50:36.611Z,9.18
2023-03-05T05:53:07.747Z,12.23
2023-03-05T05:55:42.374Z,20.65
2023-03-05T05:58:13.382Z,12.45
2023-03-05T06:00:44.285Z,9.07
2023-03-05T06:03:15.574Z,10.45
2023-03-05T06:05:47.793Z,14.82
2023-03-05T06:08:19.748Z,21.80
2023-03-05T06:10:58.309Z,33.00
2023-03-05T06:13:29.736Z,14.27
2023-03-05T06:16:02.008Z,11.35
2023-03-05T06:18:33.343Z,10.43
2023-03-05T06:21:06.826Z,9.20
2023-03-05T06:23:38.447Z,12.88
2023-03-05T06:26:13.124Z,8.73
2023-03-05T06:28:44.313Z,12.98
2023-03-05T06:31:18.626Z,14.18
2023-03-05T06:33:49.907Z,12.75
2023-03-05T06:36:23.724Z,12.70
2023-03-05T06:38:55.998Z,14.35
2023-03-05T06:41:31.125Z,14.02
2023-03-05T06:44:04.238Z,7.15
2023-03-05T06:46:37.417Z,16.65
2023-03-05T06:49:09.677Z,12.98
2023-03-05T06:51:42.511Z,5.45
2023-03-05T06:54:16.674Z,7.72
2023-03-05T06:56:49.617Z,8.27
2023-03-05T06:59:21.794Z,20.33
2023-03-05T07:01:52.812Z,15.10
2023-03-05T07:04:25.014Z,14.35
2023-03-05T07:06:55.918Z,9.07
2023-03-05T07:09:27.288Z,5.43
2023-03-05T07:11:59.491Z,7.35
2023-03-05T07:14:30.630Z,5.17
2023-03-05T07:17:01.430Z,11.45
2023-03-05T07:19:32.550Z,6.22
2023-03-05T07:22:03.234Z,9.70
2023-03-05T07:24:34.690Z,17.13
2023-03-05T07:27:07.166Z,12.38
2023-03-05T07:29:38.611Z,19.35
2023-03-05T07:32:09.809Z,16.42
2023-03-05T07:34:41.263Z,14.73
2023-03-05T07:37:12.323Z,10.23
2023-03-05T07:39:46.268Z,14.38
2023-03-05T07:42:19.150Z,9.88
2023-03-05T07:45:00.295Z,5.15
2023-03-05T07:47:31.258Z,11.00
2023-03-05T07:50:02.651Z,17.48
2023-03-05T07:52:33.691Z,9.68
2023-03-05T07:55:05.333Z,11.13
2023-03-05T07:57:39.125Z,7.35
2023-03-05T08:00:12.253Z,7.95
2023-03-05T08:02:42.975Z,4.28
2023-03-05T08:05:14.455Z,8.18
2023-03-05T08:07:45.330Z,8.15
2023-03-05T08:10:16.560Z,6.95
2023-03-05T08:12:48.908Z,5.93
2023-03-05T08:15:20.177Z,10.63
2023-03-05T08:17:51.109Z,8.07
2023-03-05T08:20:22.315Z,8.75
2023-03-05T08:22:54.280Z,8.57
2023-03-05T08:25:25.485Z,6.97
2023-03-05T08:27:57.769Z,6.43
2023-03-05T08:30:28.978Z,8.32
2023-03-05T08:33:00.077Z,8.13
2023-03-05T08:35:31.164Z,3.97
2023-03-05T08:38:01.995Z,10.65
2023-03-05T08:40:33.186Z,6.72
2023-03-05T08:43:07.523Z,3.20
2023-03-05T08:45:40.292Z,10.52
2023-03-05T08:48:11.177Z,3.22
2023-03-05T08:50:42.241Z,1.13
2023-03-05T08:53:13.183Z,1.50
2023-03-05T08:55:44.316Z,6.35
2023-03-05T08:58:16.463Z,5.32
2023-03-05T09:00:47.500Z,4.25
2023-03-05T09:03:18.477Z,6.20
2023-03-05T09:05:49.517Z,1.52
2023-03-05T09:08:21.026Z,7.47
2023-03-05T09:10:52.169Z,5.88
2023-03-05T09:13:24.700Z,7.90
2023-03-05T09:16:00.275Z,6.68
2023-03-05T09:18:32.066Z,11.27
2023-03-05T09:21:07.510Z,9.70
2023-03-05T09:23:38.331Z,7.18
2023-03-05T09:26:12.473Z,5.13
2023-03-05T09:28:45.036Z,10.07
2023-03-05T09:31:16.356Z,3.63
2023-03-05T09:33:48.507Z,5.15
2023-03-05T09:37:45.347Z,2.90
2023-03-05T09:40:20.009Z,5.40
2023-03-05T09:43:10.844Z,3.20
2023-03-05T09:45:58.856Z,7.45
2023-03-05T09:48:47.889Z,7.95
2023-03-05T09:51:26.224Z,8.75
2023-03-05T09:54:04.823Z,13.55
2023-03-05T09:56:42.493Z,8.30
2023-03-05T09:59:27.613Z,7.95
2023-03-05T10:02:04.894Z,8.35
2023-03-05T10:04:46.647Z,4.80
2023-03-05T10:07:22.904Z,4.38
2023-03-05T10:09:59.561Z,1.70
2023-03-05T10:12:42.952Z,6.13
2023-03-05T10:15:16.518Z,11.20
2023-03-05T10:18:14.540Z,3.92
2023-03-05T10:20:59.375Z,6.55
2023-03-05T10:23:52.574Z,7.80
2023-03-05T10:26:43.436Z,9.75
2023-03-05T10:29:41.419Z,3.22
2023-03-05T10:32:26.357Z,7.35
2023-03-05T10:35:25.064Z,8.65
2023-03-05T10:38:25.554Z,2.63
2023-03-05T10:40:58.143Z,4.53
2023-03-05T10:43:39.274Z,8.00
2023-03-05T10:46:18.510Z,8.13
2023-03-05T10:48:54.647Z,3.00
2023-03-05T10:51:38.089Z,4.95
2023-03-05T10:54:20.297Z,9.75
2023-03-05T10:56:51.719Z,9.02
2023-03-05T10:59:22.430Z,3.35
2023-03-05T11:02:08.708Z,5.07
2023-03-05T11:04:42.117Z,3.72
2023-03-05T11:07:39.704Z,4.22
2023-03-05T11:10:28.107Z,3.33
2023-03-05T11:13:00.822Z,8.38
2023-03-05T11:15:32.565Z,2.60
2023-03-05T11:18:21.211Z,5.10
2023-03-05T11:20:53.262Z,4.03
2023-03-05T11:23:26.460Z,2.15
2023-03-05T11:26:02.820Z,2.53
2023-03-05T11:28:38.096Z,3.05
2023-03-05T11:31:24.578Z,2.33
2023-03-05T11:34:04.299Z,6.38
2023-03-05T11:36:36.359Z,4.78
2023-03-05T11:39:19.641Z,4.45
2023-03-05T11:41:53.991Z,2.47
2023-03-05T11:44:29.841Z,5.78
2023-03-05T11:47:05.815Z,2.53
2023-03-05T11:49:46.415Z,6.18
2023-03-05T11:52:23.609Z,4.13
2023-03-05T11:55:03.957Z,2.53
2023-03-05T11:57:45.158Z,10.02
2023-03-05T12:00:19.785Z,7.80
2023-03-05T12:02:56.069Z,10.27
2023-03-05T12:05:28.530Z,9.15
2023-03-05T12:08:03.237Z,16.83
2023-03-05T12:10:35.775Z,10.00
2023-03-05T12:13:16.551Z,13.18
2023-03-05T12:16:01.553Z,10.73
2023-03-05T12:18:53.799Z,10.98
2023-03-05T12:21:35.049Z,11.80
2023-03-05T12:24:40.031Z,13.98
2023-03-05T12:27:32.604Z,10.85
2023-03-05T12:30:04.281Z,15.02
2023-03-05T12:32:55.076Z,9.63
2023-03-05T12:35:38.346Z,4.78
2023-03-05T12:38:32.516Z,2.45
2023-03-05T12:41:44.873Z,4.45
2023-03-05T12:44:35.659Z,2.65
2023-03-05T12:47:23.849Z,5.28
2023-03-05T12:49:55.137Z,2.88
2023-03-05T12:52:31.054Z,4.13
2023-03-05T12:55:23.799Z,9.93
2023-03-05T12:58:00.032Z,3.83
2023-03-05T13:00:41.971Z,5.78
2023-03-05T13:03:19.710Z,9.38
2023-03-05T13:05:54.562Z,7.60
2023-03-05T13:08:28.563Z,6.88
2023-03-05T13:11:02.904Z,6.70
2023-03-05T13:13:38.684Z,6.97
2023-03-05T13:16:19.963Z,4.68
2023-03-05T13:18:52.494Z,10.88
2023-03-05T13:21:29.183Z,5.43
2023-03-05T13:24:02.634Z,5.72
2023-03-05T13:26:41.235Z,3.70
2023-03-05T13:29:15.613Z,8.95
2023-03-05T13:31:50.516Z,4.70
2023-03-05T13:34:26.537Z,2.28
2023-03-05T13:37:03.233Z,3.05
2023-03-05T13:39:39.283Z,11.10
2023-03-05T13:42:20.205Z,2.15
2023-03-05T13:44:57.233Z,1.27
2023-03-05T13:47:33.244Z,1.65
2023-03-05T13:50:07.236Z,3.72
2023-03-05T13:52:40.367Z,9.82
2023-03-05T13:55:18.047Z,9.98
2023-03-05T13:57:53.142Z,9.32
2023-03-05T14:00:34.104Z,6.18
2023-03-05T14:03:23.059Z,6.00
2023-03-05T14:05:55.387Z,10.10
2023-03-05T14:08:28.504Z,5.13
2023-03-05T14:11:01.462Z,8.85
2023-03-05T14:13:33.813Z,18.50
2023-03-05T14:16:09.735Z,9.52
2023-03-05T14:18:58.270Z,12.95
2023-03-05T14:21:47.212Z,15.35
2023-03-05T14:24:27.104Z,14.57
2023-03-05T14:26:59.921Z,16.08
2023-03-05T14:29:31.854Z,11.63
2023-03-05T14:32:07.807Z,10.55
2023-03-05T14:34:43.154Z,10.20
2023-03-05T14:37:24.808Z,9.50
2023-03-05T14:39:59.561Z,13.07
2023-03-05T14:42:35.250Z,12.35
2023-03-05T14:45:15.014Z,13.98
2023-03-05T14:47:46.849Z,8.35
2023-03-05T14:50:23.460Z,6.40
2023-03-05T14:52:58.540Z,8.85
2023-03-05T14:55:32.906Z,11.50
2023-03-05T14:58:06.101Z,8.35
2023-03-05T15:00:37.309Z,12.05
2023-03-05T15:03:08.252Z,5.18
2023-03-05T15:05:42.181Z,7.05
2023-03-05T15:08:16.289Z,7.25
2023-03-05T15:10:47.548Z,7.65
2023-03-05T15:13:19.618Z,7.20
2023-03-05T15:15:52.815Z,6.28
2023-03-05T15:18:24.734Z,4.73
2023-03-05T15:20:59.094Z,6.28
2023-03-05T15:23:35.524Z,8.82
2023-03-05T15:26:10.009Z,6.40
2023-03-05T15:28:41.820Z,8.98
2023-03-05T15:31:13.472Z,13.25
2023-03-05T15:33:44.081Z,4.65
2023-03-05T15:36:16.854Z,6.72
2023-03-05T15:38:48.269Z,5.28
2023-03-05T15:41:22.513Z,6.55
2023-03-05T15:43:53.422Z,8.27
2023-03-05T15:46:25.118Z,9.68
2023-03-05T15:49:53.316Z,10.95
2023-03-05T15:52:26.237Z,14.40
2023-03-05T15:54:57.536Z,14.23
2023-03-05T15:57:29.221Z,15.73
2023-03-05T15:59:59.964Z,15.07
2023-03-05T16:02:31.198Z,7.50
2023-03-05T16:05:02.112Z,7.22
2023-03-05T16:07:38.431Z,8.43
2023-03-05T16:10:14.863Z,9.98
2023-03-05T16:12:49.928Z,7.70
2023-03-05T16:15:23.296Z,10.82
2023-03-05T16:17:58.975Z,13.57
2023-03-05T16:20:29.852Z,9.20
2023-03-05T16:23:03.171Z,13.95
2023-03-05T16:25:34.410Z,7.47
2023-03-05T16:28:05.701Z,7.78
2023-03-05T16:30:36.607Z,12.02
2023-03-05T16:33:07.593Z,18.15
2023-03-05T16:35:38.393Z,8.45
2023-03-05T16:38:10.890Z,12.05
2023-03-05T16:41:06.738Z,16.42
2023-03-05T16:43:33.126Z,13.40
2023-03-05T16:46:03.987Z,16.45
2023-03-05T16:48:36.090Z,13.57
2023-03-05T16:51:07.671Z,12.88
2023-03-05T16:53:40.963Z,12.35
2023-03-05T16:56:12.536Z,13.25
2023-03-05T16:58:43.751Z,15.93
2023-03-05T17:01:17.112Z,11.48
2023-03-05T17:03:48.451Z,13.95
2023-03-05T17:06:22.523Z,18.40
2023-03-05T17:08:56.132Z,21.55
2023-03-05T17:11:27.521Z,15.82
2023-03-05T17:13:58.994Z,18.90
2023-03-05T17:16:29.816Z,18.67
2023-03-05T17:19:01.067Z,15.20
2023-03-05T17:21:31.896Z,14.95
2023-03-05T17:24:04.466Z,13.45
2023-03-05T17:26:36.588Z,18.98
2023-03-05T17:29:08.517Z,9.43
2023-03-05T17:31:39.349Z,10.40
2023-03-05T17:34:10.411Z,11.02
2023-03-05T17:36:41.332Z,15.70
2023-03-05T17:39:14.493Z,22.45
2023-03-05T17:41:45.640Z,20.10
2023-03-05T17:44:16.831Z,17.80
2023-03-05T17:46:47.764Z,13.18
2023-03-05T17:49:19.216Z,18.25
2023-03-05T17:51:50.106Z,12.70
2023-03-05T17:54:22.908Z,11.77
2023-03-05T17:56:56.675Z,19.67
2023-03-05T17:59:28.116Z,10.20
2023-03-05T18:01:58.982Z,20.10
2023-03-05T18:04:30.097Z,19.85
2023-03-05T18:07:01.885Z,22.83
2023-03-05T18:09:34.652Z,13.50
2023-03-05T18:12:05.879Z,18.77
2023-03-05T18:14:36.840Z,13.35
2023-03-05T18:17:07.939Z,15.20
2023-03-05T18:19:38.987Z,15.27
2023-03-05T18:22:10.023Z,19.48
2023-03-05T18:24:42.569Z,16.45
2023-03-05T18:27:13.449Z,16.23
2023-03-05T18:29:44.574Z,17.58
2023-03-05T18:32:15.714Z,18.17
2023-03-05T18:34:48.467Z,15.70
2023-03-05T18:37:21.212Z,18.60
2023-03-05T18:39:54.044Z,16.38
2023-03-05T18:42:24.905Z,26.38
2023-03-05T18:44:57.140Z,32.63
2023-03-05T18:47:28.194Z,37.25
2023-03-05T18:49:59.249Z,40.25
2023-03-05T18:52:30.167Z,35.47
2023-03-05T18:55:03.163Z,43.75
2023-03-05T18:57:34.031Z,45.97
2023-03-05T19:00:07.541Z,40.40
2023-03-05T19:02:38.545Z,40.55
2023-03-05T19:05:11.501Z,36.45
2023-03-05T19:07:43.570Z,40.22
2023-03-05T19:10:18.351Z,58.67
2023-03-05T19:12:56.914Z,51.75
2023-03-05T19:15:29.713Z,41.50
2023-03-05T19:18:00.837Z,48.33
2023-03-05T19:20:32.049Z,48.15
2023-03-05T19:23:02.730Z,51.97
2023-03-05T19:25:36.551Z,50.20
2023-03-05T19:28:07.498Z,43.63
2023-03-05T19:30:38.990Z,48.35
2023-03-05T19:33:09.851Z,49.33
2023-03-05T19:35:43.696Z,45.47
2023-03-05T19:38:14.577Z,48.13
2023-03-05T19:40:48.286Z,65.90
2023-03-05T19:45:50.228Z,52.38
2023-03-05T19:48:21.602Z,58.97
2023-03-05T19:50:53.000Z,47.83
2023-03-05T19:53:24.000Z,62.92
2023-03-05T19:55:56.856Z,71.70
2023-03-05T19:58:27.953Z,68.47
2023-03-05T20:01:08.331Z,72.68
2023-03-05T20:03:40.239Z,64.07
2023-03-05T20:06:11.396Z,43.30
2023-03-05T20:08:42.394Z,40.03
2023-03-05T20:11:17.371Z,32.03
2023-03-05T20:13:48.249Z,32.72
2023-03-05T20:16:21.686Z,31.73
2023-03-05T20:18:54.858Z,26.70
2023-03-05T20:24:00.567Z,23.95
2023-03-05T20:29:06.335Z,26.88
2023-03-05T20:31:38.095Z,30.13
2023-03-05T20:34:10.758Z,36.20
2023-03-05T20:36:42.406Z,29.48
2023-03-05T20:39:13.309Z,26.40
2023-03-05T20:41:47.059Z,22.73
2023-03-05T20:46:59.696Z,20.80
2023-03-05T20:49:30.780Z,30.25
2023-03-05T20:52:02.111Z,27.27
2023-03-05T20:54:33.435Z,23.30
2023-03-05T20:57:06.533Z,26.70
2023-03-05T20:59:37.516Z,21.40
2023-03-05T21:02:11.205Z,24.05
2023-03-05T21:04:42.174Z,23.77
2023-03-05T21:07:13.226Z,22.80
2023-03-05T21:09:43.932Z,22.15
2023-03-05T21:12:16.597Z,25.98
2023-03-05T21:14:47.463Z,30.63
2023-03-05T21:17:19.849Z,29.58
2023-03-05T21:19:50.588Z,30.98
2023-03-05T21:22:21.825Z,29.95
2023-03-05T21:25:02.278Z,31.95
2023-03-05T21:27:40.113Z,34.95
2023-03-05T21:30:13.550Z,33.25
2023-03-05T21:32:44.818Z,38.15
2023-03-05T21:35:19.703Z,36.58
2023-03-05T21:37:52.711Z,40.55
2023-03-05T21:40:24.147Z,41.92
2023-03-05T21:42:56.919Z,40.28
2023-03-05T21:45:30.868Z,41.97
2023-03-05T21:48:02.136Z,38.08
2023-03-05T21:50:33.784Z,34.58
2023-03-05T21:53:05.240Z,42.58
2023-03-05T21:55:45.306Z,50.10
2023-03-05T21:58:17.979Z,52.42
2023-03-05T22:00:49.020Z,63.53
2023-03-05T22:03:20.400Z,49.50
2023-03-05T22:05:51.105Z,63.60
2023-03-05T22:08:22.923Z,69.88
2023-03-05T22:10:54.544Z,52.15
2023-03-05T22:13:27.266Z,54.17
2023-03-05T22:16:00.806Z,46.33
2023-03-05T22:18:33.848Z,35.33
2023-03-05T22:21:05.178Z,29.38
2023-03-05T22:23:36.908Z,39.15
2023-03-05T22:26:09.537Z,42.20
2023-03-05T22:28:42.697Z,40.22
2023-03-05T22:31:13.676Z,46.50
2023-03-05T22:33:44.731Z,47.90
2023-03-05T22:36:16.579Z,93.60
2023-03-05T22:38:48.310Z,61.80
2023-03-05T22:41:21.193Z,52.97
2023-03-05T22:43:54.976Z,47.00
2023-03-05T22:48:58.540Z,45.83
2023-03-05T22:51:29.440Z,41.17
2023-03-05T22:54:00.652Z,41.42
2023-03-05T22:56:31.371Z,37.65
2023-03-05T22:59:04.003Z,43.28
2023-03-05T23:01:34.824Z,37.40
2023-03-05T23:04:18.342Z,45.13
2023-03-05T23:06:49.284Z,34.47
2023-03-05T23:09:20.336Z,30.63
2023-03-05T23:11:51.165Z,33.85
2023-03-05T23:14:23.778Z,37.90
2023-03-05T23:16:54.374Z,32.72
2023-03-05T23:19:25.626Z,35.40
2023-03-05T23:21:56.334Z,31.95
2023-03-05T23:24:27.471Z,29.50
2023-03-05T23:26:58.136Z,36.53
2023-03-05T23:29:33.145Z,28.92
2023-03-05T23:32:03.786Z,32.63
2023-03-05T23:34:34.899Z,96.13
2023-03-05T23:37:06.696Z,106.57
2023-03-05T23:39:37.692Z,76.05
2023-03-05T23:42:08.789Z,59.38
2023-03-05T23:44:41.340Z,45.03
2023-03-05T23:47:12.001Z,44.85
2023-03-05T23:49:42.988Z,57.72
2023-03-05T23:52:13.768Z,62.25
2023-03-05T23:54:44.792Z,64.40
2023-03-05T23:57:15.610Z,63.28
2023-03-05T23:59:48.413Z,55.65
